Wieston, Iowa
Current Conditions -  °F | °C
As of 1:15 PM on Friday 21 Nov 2014 (Local Time) from KFOD Reporting Station
Clear Clear  
Wind Chill: 19°   Ceiling: Unl
Heat Index: 30°   Visibility: 10mi
Dew Point: 19°   Wind: 16mph
Humidity: 64%   Direction: 180°S
Pressure: 30.13"   Gusts: 20mph
Location:  42.5162°N, 94.5018°W
Report Text: KFOD 211915Z AUTO 18014G17KT 10SM CLR M01/M07 A3013 RMK AO1
Loading
Personal Weather Stations






























Interactive Weather Map New forecast layout! Learn more

10-Day Weather Forecast

Advertisements
Track Severe Weather on mobile